sensor_id;sensor_type;location;lat;lon;timestamp;temperature;humidity
26541;DHT22;14206;50.202;10.948;2024-02-15T00:00:54;10.60;96.60
26541;DHT22;14206;50.202;10.948;2024-02-15T00:03:21;10.60;96.60
26541;DHT22;14206;50.202;10.948;2024-02-15T00:05:48;10.60;96.60
26541;DHT22;14206;50.202;10.948;2024-02-15T00:08:15;10.60;96.60
26541;DHT22;14206;50.202;10.948;2024-02-15T00:10:42;10.60;96.60
26541;DHT22;14206;50.202;10.948;2024-02-15T00:13:10;10.60;96.60
26541;DHT22;14206;50.202;10.948;2024-02-15T00:15:36;10.60;96.60
26541;DHT22;14206;50.202;10.948;2024-02-15T00:18:04;10.60;96.60
26541;DHT22;14206;50.202;10.948;2024-02-15T00:20:31;10.60;96.60
26541;DHT22;14206;50.202;10.948;2024-02-15T00:23:00;10.60;96.60
26541;DHT22;14206;50.202;10.948;2024-02-15T00:25:27;10.60;96.60
26541;DHT22;14206;50.202;10.948;2024-02-15T00:27:54;10.60;96.60
26541;DHT22;14206;50.202;10.948;2024-02-15T00:30:21;10.60;96.60
26541;DHT22;14206;50.202;10.948;2024-02-15T00:32:48;10.60;96.60
26541;DHT22;14206;50.202;10.948;2024-02-15T00:35:16;10.50;96.60
26541;DHT22;14206;50.202;10.948;2024-02-15T00:37:43;10.50;96.60
26541;DHT22;14206;50.202;10.948;2024-02-15T00:40:18;10.50;96.60
26541;DHT22;14206;50.202;10.948;2024-02-15T00:42:44;10.40;96.60
26541;DHT22;14206;50.202;10.948;2024-02-15T00:45:11;10.40;96.60
26541;DHT22;14206;50.202;10.948;2024-02-15T00:47:38;10.30;96.60
26541;DHT22;14206;50.202;10.948;2024-02-15T00:50:09;10.30;96.60
26541;DHT22;14206;50.202;10.948;2024-02-15T00:52:37;10.30;96.60
26541;DHT22;14206;50.202;10.948;2024-02-15T00:55:04;10.30;96.60
26541;DHT22;14206;50.202;10.948;2024-02-15T00:57:31;10.30;96.60
26541;DHT22;14206;50.202;10.948;2024-02-15T00:59:58;10.30;96.60
26541;DHT22;14206;50.202;10.948;2024-02-15T01:02:26;10.30;96.60
26541;DHT22;14206;50.202;10.948;2024-02-15T01:04:54;10.30;96.60
26541;DHT22;14206;50.202;10.948;2024-02-15T01:07:24;10.40;96.60
26541;DHT22;14206;50.202;10.948;2024-02-15T01:09:54;10.40;96.60
26541;DHT22;14206;50.202;10.948;2024-02-15T01:12:21;10.50;96.60
26541;DHT22;14206;50.202;10.948;2024-02-15T01:14:48;10.50;96.60
26541;DHT22;14206;50.202;10.948;2024-02-15T01:17:15;10.50;96.60
26541;DHT22;14206;50.202;10.948;2024-02-15T01:19:42;10.50;96.60
26541;DHT22;14206;50.202;10.948;2024-02-15T01:22:09;10.60;96.60
26541;DHT22;14206;50.202;10.948;2024-02-15T01:24:36;10.60;96.60
26541;DHT22;14206;50.202;10.948;2024-02-15T01:27:02;10.60;96.60
26541;DHT22;14206;50.202;10.948;2024-02-15T01:29:30;10.60;96.60
26541;DHT22;14206;50.202;10.948;2024-02-15T01:31:56;10.60;96.60
26541;DHT22;14206;50.202;10.948;2024-02-15T01:34:23;10.60;96.60
26541;DHT22;14206;50.202;10.948;2024-02-15T01:36:50;10.60;96.60
26541;DHT22;14206;50.202;10.948;2024-02-15T01:39:17;10.60;96.60
26541;DHT22;14206;50.202;10.948;2024-02-15T01:41:48;10.60;96.60
26541;DHT22;14206;50.202;10.948;2024-02-15T01:44:18;10.70;96.60
26541;DHT22;14206;50.202;10.948;2024-02-15T01:46:47;10.70;96.60
26541;DHT22;14206;50.202;10.948;2024-02-15T01:49:15;10.70;96.60
26541;DHT22;14206;50.202;10.948;2024-02-15T01:51:43;10.70;96.60
26541;DHT22;14206;50.202;10.948;2024-02-15T01:54:12;10.70;96.60
26541;DHT22;14206;50.202;10.948;2024-02-15T01:56:39;10.70;96.60
26541;DHT22;14206;50.202;10.948;2024-02-15T01:59:07;10.70;96.60
26541;DHT22;14206;50.202;10.948;2024-02-15T02:01:34;10.70;96.60
26541;DHT22;14206;50.202;10.948;2024-02-15T02:04:01;10.70;96.60
26541;DHT22;14206;50.202;10.948;2024-02-15T02:06:30;10.80;96.60
26541;DHT22;14206;50.202;10.948;2024-02-15T02:08:58;10.80;96.60
26541;DHT22;14206;50.202;10.948;2024-02-15T02:11:25;10.90;96.60
26541;DHT22;14206;50.202;10.948;2024-02-15T02:13:52;10.90;96.60
26541;DHT22;14206;50.202;10.948;2024-02-15T02:16:26;10.90;96.60
26541;DHT22;14206;50.202;10.948;2024-02-15T02:18:56;10.90;96.60
26541;DHT22;14206;50.202;10.948;2024-02-15T02:21:25;10.90;96.60
26541;DHT22;14206;50.202;10.948;2024-02-15T02:23:55;10.90;96.60
26541;DHT22;14206;50.202;10.948;2024-02-15T02:26:23;10.90;96.60
26541;DHT22;14206;50.202;10.948;2024-02-15T02:28:51;10.90;96.60
26541;DHT22;14206;50.202;10.948;2024-02-15T02:31:21;10.90;96.60
26541;DHT22;14206;50.202;10.948;2024-02-15T02:33:52;11.00;96.60
26541;DHT22;14206;50.202;10.948;2024-02-15T02:36:20;10.90;96.60
26541;DHT22;14206;50.202;10.948;2024-02-15T02:38:48;10.90;96.60
26541;DHT22;14206;50.202;10.948;2024-02-15T02:41:16;10.90;96.60
26541;DHT22;14206;50.202;10.948;2024-02-15T02:43:46;10.90;96.60
26541;DHT22;14206;50.202;10.948;2024-02-15T02:46:20;10.90;96.60
26541;DHT22;14206;50.202;10.948;2024-02-15T02:48:47;10.90;96.60
26541;DHT22;14206;50.202;10.948;2024-02-15T02:51:15;10.90;96.60
26541;DHT22;14206;50.202;10.948;2024-02-15T02:53:42;10.90;96.60
26541;DHT22;14206;50.202;10.948;2024-02-15T02:56:09;10.90;96.60
26541;DHT22;14206;50.202;10.948;2024-02-15T02:58:36;11.00;96.60
26541;DHT22;14206;50.202;10.948;2024-02-15T03:01:03;11.00;96.60
26541;DHT22;14206;50.202;10.948;2024-02-15T03:03:30;11.10;96.60
26541;DHT22;14206;50.202;10.948;2024-02-15T03:05:57;11.10;96.60
26541;DHT22;14206;50.202;10.948;2024-02-15T03:08:25;11.10;96.60
26541;DHT22;14206;50.202;10.948;2024-02-15T03:10:52;11.20;96.60
26541;DHT22;14206;50.202;10.948;2024-02-15T03:13:18;11.20;96.60
26541;DHT22;14206;50.202;10.948;2024-02-15T03:15:46;11.20;96.60
26541;DHT22;14206;50.202;10.948;2024-02-15T03:18:15;11.10;96.60
26541;DHT22;14206;50.202;10.948;2024-02-15T03:20:43;11.10;96.60
26541;DHT22;14206;50.202;10.948;2024-02-15T03:23:10;11.10;96.60
26541;DHT22;14206;50.202;10.948;2024-02-15T03:25:37;11.10;96.60
26541;DHT22;14206;50.202;10.948;2024-02-15T03:28:04;11.10;96.60
26541;DHT22;14206;50.202;10.948;2024-02-15T03:30:39;11.20;96.60
26541;DHT22;14206;50.202;10.948;2024-02-15T03:33:06;11.10;96.60
26541;DHT22;14206;50.202;10.948;2024-02-15T03:35:34;11.00;96.60
26541;DHT22;14206;50.202;10.948;2024-02-15T03:38:01;11.00;96.60
26541;DHT22;14206;50.202;10.948;2024-02-15T03:40:28;10.90;96.60
26541;DHT22;14206;50.202;10.948;2024-02-15T03:42:56;10.90;96.60
26541;DHT22;14206;50.202;10.948;2024-02-15T03:45:24;10.80;96.60
26541;DHT22;14206;50.202;10.948;2024-02-15T03:47:55;10.80;96.60
26541;DHT22;14206;50.202;10.948;2024-02-15T03:50:25;10.80;96.60
26541;DHT22;14206;50.202;10.948;2024-02-15T03:52:52;10.80;96.60
26541;DHT22;14206;50.202;10.948;2024-02-15T03:55:19;10.80;96.60
26541;DHT22;14206;50.202;10.948;2024-02-15T03:57:46;10.70;96.60
26541;DHT22;14206;50.202;10.948;2024-02-15T04:00:14;10.70;96.60
26541;DHT22;14206;50.202;10.948;2024-02-15T04:02:41;10.70;96.60
26541;DHT22;14206;50.202;10.948;2024-02-15T04:05:09;10.70;96.60
26541;DHT22;14206;50.202;10.948;2024-02-15T04:07:39;10.70;96.60
26541;DHT22;14206;50.202;10.948;2024-02-15T04:10:06;10.60;96.60
26541;DHT22;14206;50.202;10.948;2024-02-15T04:12:33;10.60;96.60
26541;DHT22;14206;50.202;10.948;2024-02-15T04:15:00;10.60;96.60
26541;DHT22;14206;50.202;10.948;2024-02-15T04:17:32;10.60;96.60
26541;DHT22;14206;50.202;10.948;2024-02-15T04:20:03;10.60;96.60
26541;DHT22;14206;50.202;10.948;2024-02-15T04:22:32;10.60;96.60
26541;DHT22;14206;50.202;10.948;2024-02-15T04:25:05;10.70;96.60
26541;DHT22;14206;50.202;10.948;2024-02-15T04:27:33;10.70;96.60
26541;DHT22;14206;50.202;10.948;2024-02-15T04:30:01;10.70;96.60
26541;DHT22;14206;50.202;10.948;2024-02-15T04:32:29;10.70;96.60
26541;DHT22;14206;50.202;10.948;2024-02-15T04:35:01;10.70;96.60
26541;DHT22;14206;50.202;10.948;2024-02-15T04:37:29;10.60;96.60
26541;DHT22;14206;50.202;10.948;2024-02-15T04:39:59;10.60;96.60
26541;DHT22;14206;50.202;10.948;2024-02-15T04:42:34;10.70;96.60
26541;DHT22;14206;50.202;10.948;2024-02-15T04:45:01;10.70;96.60
26541;DHT22;14206;50.202;10.948;2024-02-15T04:47:28;10.70;96.60
26541;DHT22;14206;50.202;10.948;2024-02-15T04:49:57;10.80;96.60
26541;DHT22;14206;50.202;10.948;2024-02-15T04:52:24;10.70;96.60
26541;DHT22;14206;50.202;10.948;2024-02-15T04:54:51;10.70;96.60
26541;DHT22;14206;50.202;10.948;2024-02-15T04:57:18;10.70;96.60
26541;DHT22;14206;50.202;10.948;2024-02-15T04:59:45;10.70;96.60
26541;DHT22;14206;50.202;10.948;2024-02-15T05:02:14;10.70;96.60
26541;DHT22;14206;50.202;10.948;2024-02-15T05:04:41;10.70;96.60
26541;DHT22;14206;50.202;10.948;2024-02-15T05:07:10;10.70;96.60
26541;DHT22;14206;50.202;10.948;2024-02-15T05:09:37;10.70;96.60
26541;DHT22;14206;50.202;10.948;2024-02-15T05:12:04;10.70;96.60
26541;DHT22;14206;50.202;10.948;2024-02-15T05:14:32;10.60;96.60
26541;DHT22;14206;50.202;10.948;2024-02-15T05:16:59;10.70;96.60
26541;DHT22;14206;50.202;10.948;2024-02-15T05:19:27;10.60;96.60
26541;DHT22;14206;50.202;10.948;2024-02-15T05:21:54;10.70;96.60
26541;DHT22;14206;50.202;10.948;2024-02-15T05:24:22;10.70;96.60
26541;DHT22;14206;50.202;10.948;2024-02-15T05:26:49;10.70;96.60
26541;DHT22;14206;50.202;10.948;2024-02-15T05:29:17;10.70;96.60
26541;DHT22;14206;50.202;10.948;2024-02-15T05:31:44;10.70;96.60
26541;DHT22;14206;50.202;10.948;2024-02-15T05:34:12;10.70;96.60
26541;DHT22;14206;50.202;10.948;2024-02-15T05:36:40;10.70;96.60
26541;DHT22;14206;50.202;10.948;2024-02-15T05:39:07;10.70;96.60
26541;DHT22;14206;50.202;10.948;2024-02-15T05:41:35;10.60;96.60
26541;DHT22;14206;50.202;10.948;2024-02-15T05:44:02;10.70;96.60
26541;DHT22;14206;50.202;10.948;2024-02-15T05:46:34;10.60;96.60
26541;DHT22;14206;50.202;10.948;2024-02-15T05:49:04;10.70;96.60
26541;DHT22;14206;50.202;10.948;2024-02-15T05:51:32;10.70;96.60
26541;DHT22;14206;50.202;10.948;2024-02-15T05:54:00;10.70;96.60
26541;DHT22;14206;50.202;10.948;2024-02-15T05:56:28;10.70;96.60
26541;DHT22;14206;50.202;10.948;2024-02-15T05:58:56;10.80;96.60
26541;DHT22;14206;50.202;10.948;2024-02-15T06:01:24;10.80;96.60
26541;DHT22;14206;50.202;10.948;2024-02-15T06:03:51;10.80;96.60
26541;DHT22;14206;50.202;10.948;2024-02-15T06:06:22;10.70;96.60
26541;DHT22;14206;50.202;10.948;2024-02-15T06:08:50;10.70;96.60
26541;DHT22;14206;50.202;10.948;2024-02-15T06:11:20;10.70;96.60
26541;DHT22;14206;50.202;10.948;2024-02-15T06:13:48;10.60;96.60
26541;DHT22;14206;50.202;10.948;2024-02-15T06:16:15;10.60;96.60
26541;DHT22;14206;50.202;10.948;2024-02-15T06:18:41;10.60;96.60
26541;DHT22;14206;50.202;10.948;2024-02-15T06:21:09;10.60;96.60
26541;DHT22;14206;50.202;10.948;2024-02-15T06:23:36;10.60;96.60
26541;DHT22;14206;50.202;10.948;2024-02-15T06:26:04;10.60;96.60
26541;DHT22;14206;50.202;10.948;2024-02-15T06:28:31;10.60;96.60
26541;DHT22;14206;50.202;10.948;2024-02-15T06:31:17;10.50;96.60
26541;DHT22;14206;50.202;10.948;2024-02-15T06:34:02;10.60;96.60
26541;DHT22;14206;50.202;10.948;2024-02-15T06:36:49;10.60;96.60
26541;DHT22;14206;50.202;10.948;2024-02-15T06:39:35;10.50;96.60
26541;DHT22;14206;50.202;10.948;2024-02-15T06:42:09;10.50;96.60
26541;DHT22;14206;50.202;10.948;2024-02-15T06:44:37;10.50;96.60
26541;DHT22;14206;50.202;10.948;2024-02-15T06:47:07;10.50;96.60
26541;DHT22;14206;50.202;10.948;2024-02-15T06:49:35;10.60;96.60
26541;DHT22;14206;50.202;10.948;2024-02-15T06:52:02;10.60;96.60
26541;DHT22;14206;50.202;10.948;2024-02-15T06:54:29;10.60;96.60
26541;DHT22;14206;50.202;10.948;2024-02-15T06:56:56;10.70;96.60
26541;DHT22;14206;50.202;10.948;2024-02-15T06:59:23;10.70;96.60
26541;DHT22;14206;50.202;10.948;2024-02-15T07:01:50;10.70;96.60
26541;DHT22;14206;50.202;10.948;2024-02-15T07:04:19;10.70;96.60
26541;DHT22;14206;50.202;10.948;2024-02-15T07:06:47;10.70;96.60
26541;DHT22;14206;50.202;10.948;2024-02-15T07:09:16;10.70;96.60
26541;DHT22;14206;50.202;10.948;2024-02-15T07:11:45;10.60;96.60
26541;DHT22;14206;50.202;10.948;2024-02-15T07:14:17;10.70;96.60
26541;DHT22;14206;50.202;10.948;2024-02-15T07:16:48;10.70;96.60
26541;DHT22;14206;50.202;10.948;2024-02-15T07:19:16;10.70;96.60
26541;DHT22;14206;50.202;10.948;2024-02-15T07:21:44;10.70;96.60
26541;DHT22;14206;50.202;10.948;2024-02-15T07:24:12;10.70;96.60
26541;DHT22;14206;50.202;10.948;2024-02-15T07:26:40;10.70;96.60
26541;DHT22;14206;50.202;10.948;2024-02-15T07:29:08;10.70;96.60
26541;DHT22;14206;50.202;10.948;2024-02-15T07:31:35;10.70;96.60
26541;DHT22;14206;50.202;10.948;2024-02-15T07:34:02;10.80;96.60
26541;DHT22;14206;50.202;10.948;2024-02-15T07:36:34;10.80;96.60
26541;DHT22;14206;50.202;10.948;2024-02-15T07:39:02;10.80;96.60
26541;DHT22;14206;50.202;10.948;2024-02-15T07:41:30;10.90;96.60
26541;DHT22;14206;50.202;10.948;2024-02-15T07:43:57;10.90;96.60
26541;DHT22;14206;50.202;10.948;2024-02-15T07:46:25;10.90;96.60
26541;DHT22;14206;50.202;10.948;2024-02-15T07:48:52;10.90;96.60
26541;DHT22;14206;50.202;10.948;2024-02-15T07:51:22;11.00;96.60
26541;DHT22;14206;50.202;10.948;2024-02-15T07:53:49;11.10;96.60
26541;DHT22;14206;50.202;10.948;2024-02-15T07:56:17;11.10;96.60
26541;DHT22;14206;50.202;10.948;2024-02-15T07:58:48;11.20;96.60
26541;DHT22;14206;50.202;10.948;2024-02-15T08:01:19;11.20;96.60
26541;DHT22;14206;50.202;10.948;2024-02-15T08:03:51;11.30;96.60
26541;DHT22;14206;50.202;10.948;2024-02-15T08:06:21;11.40;96.60
26541;DHT22;14206;50.202;10.948;2024-02-15T08:08:52;11.50;96.60
26541;DHT22;14206;50.202;10.948;2024-02-15T08:11:20;11.50;96.60
26541;DHT22;14206;50.202;10.948;2024-02-15T08:13:51;11.50;96.60
26541;DHT22;14206;50.202;10.948;2024-02-15T08:16:22;11.60;96.60
26541;DHT22;14206;50.202;10.948;2024-02-15T08:18:50;11.60;96.60
26541;DHT22;14206;50.202;10.948;2024-02-15T08:21:29;11.60;96.60
26541;DHT22;14206;50.202;10.948;2024-02-15T08:24:03;11.70;96.60
26541;DHT22;14206;50.202;10.948;2024-02-15T08:26:39;11.70;96.60
26541;DHT22;14206;50.202;10.948;2024-02-15T08:29:06;11.70;96.60
26541;DHT22;14206;50.202;10.948;2024-02-15T08:31:33;11.70;96.60
26541;DHT22;14206;50.202;10.948;2024-02-15T08:34:03;11.80;96.60
26541;DHT22;14206;50.202;10.948;2024-02-15T08:36:37;11.80;96.60
26541;DHT22;14206;50.202;10.948;2024-02-15T08:39:06;11.70;96.60
26541;DHT22;14206;50.202;10.948;2024-02-15T08:41:35;11.80;96.60
26541;DHT22;14206;50.202;10.948;2024-02-15T08:44:02;11.80;96.60
26541;DHT22;14206;50.202;10.948;2024-02-15T08:46:32;11.80;96.60
26541;DHT22;14206;50.202;10.948;2024-02-15T08:48:59;11.70;96.60
26541;DHT22;14206;50.202;10.948;2024-02-15T08:51:27;11.80;96.60
26541;DHT22;14206;50.202;10.948;2024-02-15T08:53:54;11.80;96.60
26541;DHT22;14206;50.202;10.948;2024-02-15T08:56:23;11.80;96.60
26541;DHT22;14206;50.202;10.948;2024-02-15T08:58:50;11.90;96.60
26541;DHT22;14206;50.202;10.948;2024-02-15T09:01:17;12.00;96.60
26541;DHT22;14206;50.202;10.948;2024-02-15T09:03:44;12.00;96.60
26541;DHT22;14206;50.202;10.948;2024-02-15T09:06:12;12.10;96.60
26541;DHT22;14206;50.202;10.948;2024-02-15T09:08:40;12.20;96.60
26541;DHT22;14206;50.202;10.948;2024-02-15T09:11:07;12.20;96.60
26541;DHT22;14206;50.202;10.948;2024-02-15T09:13:38;12.30;96.60
26541;DHT22;14206;50.202;10.948;2024-02-15T09:16:05;12.20;96.60
26541;DHT22;14206;50.202;10.948;2024-02-15T09:18:32;12.20;96.60
26541;DHT22;14206;50.202;10.948;2024-02-15T09:21:00;12.30;96.60
26541;DHT22;14206;50.202;10.948;2024-02-15T09:23:27;12.30;96.60
26541;DHT22;14206;50.202;10.948;2024-02-15T09:25:54;12.30;96.60
26541;DHT22;14206;50.202;10.948;2024-02-15T09:28:21;12.40;96.60
26541;DHT22;14206;50.202;10.948;2024-02-15T09:30:51;12.40;96.60
26541;DHT22;14206;50.202;10.948;2024-02-15T09:33:19;12.40;96.60
26541;DHT22;14206;50.202;10.948;2024-02-15T09:35:46;12.50;96.60
26541;DHT22;14206;50.202;10.948;2024-02-15T09:38:13;12.60;96.60
26541;DHT22;14206;50.202;10.948;2024-02-15T09:40:43;12.70;96.60
26541;DHT22;14206;50.202;10.948;2024-02-15T09:43:11;12.80;96.60
26541;DHT22;14206;50.202;10.948;2024-02-15T09:45:40;12.90;96.60
26541;DHT22;14206;50.202;10.948;2024-02-15T09:48:10;12.90;96.60
26541;DHT22;14206;50.202;10.948;2024-02-15T09:50:41;13.00;96.60
26541;DHT22;14206;50.202;10.948;2024-02-15T09:53:13;13.00;96.60
26541;DHT22;14206;50.202;10.948;2024-02-15T09:55:42;13.10;96.60
26541;DHT22;14206;50.202;10.948;2024-02-15T09:58:09;13.20;96.60
26541;DHT22;14206;50.202;10.948;2024-02-15T10:00:36;13.30;96.60
26541;DHT22;14206;50.202;10.948;2024-02-15T10:03:06;13.40;96.60
26541;DHT22;14206;50.202;10.948;2024-02-15T10:05:34;13.40;96.60
26541;DHT22;14206;50.202;10.948;2024-02-15T10:08:02;13.50;96.60
26541;DHT22;14206;50.202;10.948;2024-02-15T10:10:30;13.40;96.60
26541;DHT22;14206;50.202;10.948;2024-02-15T10:13:00;13.40;96.60
26541;DHT22;14206;50.202;10.948;2024-02-15T10:15:37;13.40;96.60
26541;DHT22;14206;50.202;10.948;2024-02-15T10:18:07;13.40;96.60
26541;DHT22;14206;50.202;10.948;2024-02-15T10:20:40;13.40;96.60
26541;DHT22;14206;50.202;10.948;2024-02-15T10:23:12;13.40;96.60
26541;DHT22;14206;50.202;10.948;2024-02-15T10:25:40;13.40;96.60
26541;DHT22;14206;50.202;10.948;2024-02-15T10:28:08;13.50;96.60
26541;DHT22;14206;50.202;10.948;2024-02-15T10:30:40;13.60;96.60
26541;DHT22;14206;50.202;10.948;2024-02-15T10:33:29;13.70;96.60
26541;DHT22;14206;50.202;10.948;2024-02-15T10:38:34;13.90;96.60
26541;DHT22;14206;50.202;10.948;2024-02-15T10:41:04;14.00;96.60
26541;DHT22;14206;50.202;10.948;2024-02-15T10:43:33;14.00;96.60
26541;DHT22;14206;50.202;10.948;2024-02-15T10:46:01;14.00;96.60
26541;DHT22;14206;50.202;10.948;2024-02-15T10:48:29;13.90;96.60
26541;DHT22;14206;50.202;10.948;2024-02-15T10:50:59;13.90;96.60
26541;DHT22;14206;50.202;10.948;2024-02-15T10:53:28;13.80;96.60
26541;DHT22;14206;50.202;10.948;2024-02-15T10:56:12;13.80;96.60
26541;DHT22;14206;50.202;10.948;2024-02-15T10:58:50;13.70;96.60
26541;DHT22;14206;50.202;10.948;2024-02-15T11:01:17;13.70;96.60
26541;DHT22;14206;50.202;10.948;2024-02-15T11:03:56;13.70;96.60
26541;DHT22;14206;50.202;10.948;2024-02-15T11:06:28;13.60;96.60
26541;DHT22;14206;50.202;10.948;2024-02-15T11:08:57;13.60;96.60
26541;DHT22;14206;50.202;10.948;2024-02-15T11:11:26;13.60;96.60
26541;DHT22;14206;50.202;10.948;2024-02-15T11:14:27;13.60;96.60
26541;DHT22;14206;50.202;10.948;2024-02-15T11:16:59;13.80;96.60
26541;DHT22;14206;50.202;10.948;2024-02-15T11:21:59;13.80;96.60
26541;DHT22;14206;50.202;10.948;2024-02-15T11:24:31;13.90;96.60
26541;DHT22;14206;50.202;10.948;2024-02-15T11:27:05;13.90;96.60
26541;DHT22;14206;50.202;10.948;2024-02-15T11:29:53;13.80;96.60
26541;DHT22;14206;50.202;10.948;2024-02-15T11:32:45;13.70;96.60
26541;DHT22;14206;50.202;10.948;2024-02-15T11:35:24;13.70;96.60
26541;DHT22;14206;50.202;10.948;2024-02-15T11:37:52;13.80;96.60
26541;DHT22;14206;50.202;10.948;2024-02-15T11:43:09;13.90;96.60
26541;DHT22;14206;50.202;10.948;2024-02-15T11:45:37;14.00;96.60
26541;DHT22;14206;50.202;10.948;2024-02-15T11:48:09;14.10;96.60
26541;DHT22;14206;50.202;10.948;2024-02-15T11:50:41;14.30;96.60
26541;DHT22;14206;50.202;10.948;2024-02-15T11:53:09;14.50;96.60
26541;DHT22;14206;50.202;10.948;2024-02-15T11:55:38;14.70;96.60
26541;DHT22;14206;50.202;10.948;2024-02-15T11:58:08;14.90;96.60
26541;DHT22;14206;50.202;10.948;2024-02-15T12:00:36;15.00;96.60
26541;DHT22;14206;50.202;10.948;2024-02-15T12:03:23;14.90;96.60
26541;DHT22;14206;50.202;10.948;2024-02-15T12:06:27;14.90;96.50
26541;DHT22;14206;50.202;10.948;2024-02-15T12:09:17;14.90;96.10
26541;DHT22;14206;50.202;10.948;2024-02-15T12:12:03;14.90;95.50
26541;DHT22;14206;50.202;10.948;2024-02-15T12:14:48;14.90;95.50
26541;DHT22;14206;50.202;10.948;2024-02-15T12:17:34;14.90;95.30
26541;DHT22;14206;50.202;10.948;2024-02-15T12:20:20;15.00;95.60
26541;DHT22;14206;50.202;10.948;2024-02-15T12:22:52;15.20;94.80
26541;DHT22;14206;50.202;10.948;2024-02-15T12:25:20;15.20;95.30
26541;DHT22;14206;50.202;10.948;2024-02-15T12:27:59;15.20;94.50
26541;DHT22;14206;50.202;10.948;2024-02-15T12:30:33;15.30;94.20
26541;DHT22;14206;50.202;10.948;2024-02-15T12:33:11;15.30;94.70
26541;DHT22;14206;50.202;10.948;2024-02-15T12:35:40;15.40;94.80
26541;DHT22;14206;50.202;10.948;2024-02-15T12:38:08;15.50;94.10
26541;DHT22;14206;50.202;10.948;2024-02-15T12:40:37;15.50;94.90
26541;DHT22;14206;50.202;10.948;2024-02-15T12:43:09;15.50;94.20
26541;DHT22;14206;50.202;10.948;2024-02-15T12:45:37;15.40;94.20
26541;DHT22;14206;50.202;10.948;2024-02-15T12:48:06;15.40;94.50
26541;DHT22;14206;50.202;10.948;2024-02-15T12:50:34;15.50;94.40
26541;DHT22;14206;50.202;10.948;2024-02-15T12:53:01;15.60;93.20
26541;DHT22;14206;50.202;10.948;2024-02-15T12:55:30;15.60;93.30
26541;DHT22;14206;50.202;10.948;2024-02-15T12:58:03;15.60;93.70
26541;DHT22;14206;50.202;10.948;2024-02-15T13:00:31;15.70;94.50
26541;DHT22;14206;50.202;10.948;2024-02-15T13:03:02;15.70;93.40
26541;DHT22;14206;50.202;10.948;2024-02-15T13:05:31;15.70;93.10
26541;DHT22;14206;50.202;10.948;2024-02-15T13:07:59;15.80;93.40
26541;DHT22;14206;50.202;10.948;2024-02-15T13:10:27;15.70;93.20
26541;DHT22;14206;50.202;10.948;2024-02-15T13:12:55;15.70;93.50
26541;DHT22;14206;50.202;10.948;2024-02-15T13:15:23;15.60;93.80
26541;DHT22;14206;50.202;10.948;2024-02-15T13:17:54;15.60;94.10
26541;DHT22;14206;50.202;10.948;2024-02-15T13:20:26;15.60;94.30
26541;DHT22;14206;50.202;10.948;2024-02-15T13:23:03;15.50;93.90
26541;DHT22;14206;50.202;10.948;2024-02-15T13:25:35;15.40;94.20
26541;DHT22;14206;50.202;10.948;2024-02-15T13:28:11;15.30;94.30
26541;DHT22;14206;50.202;10.948;2024-02-15T13:30:39;15.30;93.90
26541;DHT22;14206;50.202;10.948;2024-02-15T13:33:07;15.40;94.40
26541;DHT22;14206;50.202;10.948;2024-02-15T13:35:35;15.40;94.70
26541;DHT22;14206;50.202;10.948;2024-02-15T13:38:03;15.50;94.30
26541;DHT22;14206;50.202;10.948;2024-02-15T13:40:30;15.50;94.30
26541;DHT22;14206;50.202;10.948;2024-02-15T13:42:59;15.50;94.00
26541;DHT22;14206;50.202;10.948;2024-02-15T13:45:31;15.40;94.90
26541;DHT22;14206;50.202;10.948;2024-02-15T13:48:01;15.30;94.70
26541;DHT22;14206;50.202;10.948;2024-02-15T13:50:29;15.20;94.60
26541;DHT22;14206;50.202;10.948;2024-02-15T13:53:00;15.20;94.80
26541;DHT22;14206;50.202;10.948;2024-02-15T13:55:27;15.10;94.80
26541;DHT22;14206;50.202;10.948;2024-02-15T13:57:55;15.00;95.20
26541;DHT22;14206;50.202;10.948;2024-02-15T14:00:26;14.90;95.30
26541;DHT22;14206;50.202;10.948;2024-02-15T14:02:58;14.90;95.40
26541;DHT22;14206;50.202;10.948;2024-02-15T14:05:27;14.90;95.80
26541;DHT22;14206;50.202;10.948;2024-02-15T14:10:24;14.80;95.10
26541;DHT22;14206;50.202;10.948;2024-02-15T14:12:54;14.80;95.50
26541;DHT22;14206;50.202;10.948;2024-02-15T14:15:29;14.70;95.60
26541;DHT22;14206;50.202;10.948;2024-02-15T14:17:56;14.60;95.40
26541;DHT22;14206;50.202;10.948;2024-02-15T14:20:25;14.60;95.80
26541;DHT22;14206;50.202;10.948;2024-02-15T14:22:53;14.70;96.40
26541;DHT22;14206;50.202;10.948;2024-02-15T14:25:24;14.80;95.50
26541;DHT22;14206;50.202;10.948;2024-02-15T14:27:55;14.90;95.50
26541;DHT22;14206;50.202;10.948;2024-02-15T14:30:25;14.90;94.70
26541;DHT22;14206;50.202;10.948;2024-02-15T14:33:10;14.90;95.30
26541;DHT22;14206;50.202;10.948;2024-02-15T14:35:49;15.00;94.90
26541;DHT22;14206;50.202;10.948;2024-02-15T14:38:16;15.00;94.40
26541;DHT22;14206;50.202;10.948;2024-02-15T14:40:48;15.00;94.60
26541;DHT22;14206;50.202;10.948;2024-02-15T14:43:23;15.00;94.80
26541;DHT22;14206;50.202;10.948;2024-02-15T14:45:54;15.00;94.50
26541;DHT22;14206;50.202;10.948;2024-02-15T14:48:23;15.00;94.20
26541;DHT22;14206;50.202;10.948;2024-02-15T14:50:51;15.00;94.00
26541;DHT22;14206;50.202;10.948;2024-02-15T14:53:20;15.00;93.60
26541;DHT22;14206;50.202;10.948;2024-02-15T14:55:47;14.90;94.10
26541;DHT22;14206;50.202;10.948;2024-02-15T14:58:14;14.90;94.30
26541;DHT22;14206;50.202;10.948;2024-02-15T15:00:44;14.90;94.00
26541;DHT22;14206;50.202;10.948;2024-02-15T15:03:13;14.80;93.70
26541;DHT22;14206;50.202;10.948;2024-02-15T15:05:42;14.80;94.30
26541;DHT22;14206;50.202;10.948;2024-02-15T15:08:27;14.80;94.40
26541;DHT22;14206;50.202;10.948;2024-02-15T15:11:13;14.80;93.80
26541;DHT22;14206;50.202;10.948;2024-02-15T15:13:59;14.80;94.10
26541;DHT22;14206;50.202;10.948;2024-02-15T15:16:26;14.70;94.50
26541;DHT22;14206;50.202;10.948;2024-02-15T15:18:55;14.70;94.80
26541;DHT22;14206;50.202;10.948;2024-02-15T15:21:23;14.60;94.10
26541;DHT22;14206;50.202;10.948;2024-02-15T15:23:51;14.60;94.20
26541;DHT22;14206;50.202;10.948;2024-02-15T15:26:20;14.50;94.10
26541;DHT22;14206;50.202;10.948;2024-02-15T15:28:47;14.40;94.00
26541;DHT22;14206;50.202;10.948;2024-02-15T15:31:15;14.30;94.20
26541;DHT22;14206;50.202;10.948;2024-02-15T15:33:43;14.30;94.40
26541;DHT22;14206;50.202;10.948;2024-02-15T15:36:10;14.30;94.40
26541;DHT22;14206;50.202;10.948;2024-02-15T15:38:38;14.30;94.20
26541;DHT22;14206;50.202;10.948;2024-02-15T15:41:07;14.30;94.90